Time;durP1;ratioP1;P1;durP2;ratioP2;P2;SDS_P1;SDS_P2;PMS_P1;PMS_P2;Temp;Humidity;BMP_temperature;BMP_pressure;BME280_temperature;BME280_humidity;BME280_pressure;Samples;Min_cycle;Max_cycle;Signal;HPM_P1;HPM_P2
2021/08/28 00:00:35;;;;;;;15.95;5.68;;;15.10;99.90;;;;;;5014016;28;25145;-75
2021/08/28 00:03:00;;;;;;;18.10;5.40;;;15.10;99.90;;;;;;5015441;28;25061;-75
2021/08/28 00:05:26;;;;;;;21.75;5.22;;;15.20;99.90;;;;;;5014550;28;25081;-76
2021/08/28 00:07:52;;;;;;;21.92;6.05;;;15.20;99.90;;;;;;5013291;28;25061;-75
2021/08/28 00:10:17;;;;;;;23.65;5.72;;;15.20;99.90;;;;;;5013863;28;25130;-75
2021/08/28 00:12:43;;;;;;;16.52;5.20;;;15.30;99.90;;;;;;5012183;28;25056;-76
2021/08/28 00:15:10;;;;;;;23.20;6.13;;;15.30;99.90;;;;;;5013271;28;25054;-74
2021/08/28 00:17:39;;;;;;;19.80;6.03;;;15.30;99.90;;;;;;5013186;28;25079;-75
2021/08/28 00:20:07;;;;;;;23.05;6.18;;;15.30;99.90;;;;;;5014285;28;25102;-77
2021/08/28 00:22:33;;;;;;;25.00;6.07;;;15.30;99.90;;;;;;4995634;28;25086;-75
2021/08/28 00:24:58;;;;;;;19.55;6.10;;;15.30;99.90;;;;;;5012041;28;25169;-76
2021/08/28 00:27:24;;;;;;;23.25;6.93;;;15.30;99.90;;;;;;5012922;28;25063;-77
2021/08/28 00:29:49;;;;;;;17.67;5.72;;;15.30;99.90;;;;;;5013336;28;25138;-76
2021/08/28 00:32:15;;;;;;;24.73;6.55;;;15.30;99.90;;;;;;5013431;28;25084;-75
2021/08/28 00:34:41;;;;;;;16.75;5.63;;;15.30;99.90;;;;;;5012824;28;25059;-73
2021/08/28 00:37:07;;;;;;;24.23;6.05;;;15.30;99.90;;;;;;5011466;28;25050;-74
2021/08/28 00:39:34;;;;;;;21.77;7.38;;;15.30;99.90;;;;;;5012467;28;25118;-76
2021/08/28 00:42:00;;;;;;;25.48;7.30;;;15.30;99.90;;;;;;5011587;28;25066;-76
2021/08/28 00:44:27;;;;;;;22.70;6.20;;;15.20;99.90;;;;;;5011904;28;25087;-74
2021/08/28 00:46:54;;;;;;;29.58;6.68;;;15.20;99.90;;;;;;5011794;28;25079;-75
2021/08/28 00:49:20;;;;;;;19.10;6.28;;;15.20;99.90;;;;;;5012422;28;25064;-74
2021/08/28 00:51:46;;;;;;;19.83;6.05;;;15.20;99.90;;;;;;5012375;28;25057;-76
2021/08/28 00:54:12;;;;;;;26.80;7.70;;;15.20;99.90;;;;;;5010663;28;25122;-76
2021/08/28 00:56:40;;;;;;;24.60;7.30;;;15.20;99.90;;;;;;5013136;28;25101;-76
2021/08/28 00:59:06;;;;;;;21.67;6.53;;;15.10;99.90;;;;;;5012815;28;25056;-74
2021/08/28 01:01:35;;;;;;;24.10;6.82;;;15.10;99.90;;;;;;5019638;28;25054;-75
2021/08/28 01:04:02;;;;;;;22.15;6.88;;;15.10;99.90;;;;;;5028632;28;25189;-75
2021/08/28 01:06:56;;;;;;;23.35;6.25;;;15.10;99.90;;;;;;5026739;28;25171;-75
2021/08/28 01:09:28;;;;;;;23.80;7.75;;;15.10;99.90;;;;;;5030731;28;25127;-75
2021/08/28 01:12:15;;;;;;;28.75;7.40;;;15.10;99.90;;;;;;5028964;28;25061;-75
2021/08/28 01:14:44;;;;;;;22.73;6.90;;;15.10;99.90;;;;;;5029296;28;25057;-74
2021/08/28 01:17:13;;;;;;;22.40;6.85;;;15.10;99.90;;;;;;5030493;28;25060;-73
2021/08/28 01:20:09;;;;;;;23.92;7.20;;;15.10;99.90;;;;;;5032899;28;25055;-76
2021/08/28 01:22:41;;;;;;;21.30;7.38;;;15.10;99.90;;;;;;5030991;28;25068;-72
2021/08/28 01:25:09;;;;;;;15.90;6.65;;;15.10;99.90;;;;;;5032084;28;25107;-75
2021/08/28 01:27:46;;;;;;;30.77;7.35;;;15.10;99.90;;;;;;5027896;28;25110;-75
2021/08/28 01:30:13;;;;;;;30.77;8.15;;;15.20;99.90;;;;;;5033261;28;25054;-74
2021/08/28 01:32:40;;;;;;;28.60;7.57;;;15.20;99.90;;;;;;5030729;28;25136;-76
2021/08/28 01:35:06;;;;;;;22.33;7.20;;;15.20;99.90;;;;;;5028848;28;25163;-75
2021/08/28 01:37:33;;;;;;;25.33;6.70;;;15.20;99.90;;;;;;5027571;28;25068;-76
2021/08/28 01:40:03;;;;;;;26.27;6.85;;;15.20;99.90;;;;;;5027585;28;25083;-75
2021/08/28 01:42:33;;;;;;;25.45;7.00;;;15.30;99.90;;;;;;5022647;28;25065;-76
2021/08/28 01:44:59;;;;;;;24.15;6.47;;;15.30;99.90;;;;;;5029914;28;25107;-74
2021/08/28 01:47:28;;;;;;;33.70;8.20;;;15.30;99.90;;;;;;5032428;28;25090;-75
2021/08/28 01:49:54;;;;;;;31.00;6.65;;;15.30;99.90;;;;;;5032141;28;25060;-75
2021/08/28 01:52:20;;;;;;;27.70;6.75;;;15.30;99.90;;;;;;5015359;28;25093;-74
2021/08/28 01:54:45;;;;;;;26.05;5.90;;;15.40;99.90;;;;;;5033107;28;25062;-75
2021/08/28 01:57:11;;;;;;;27.25;5.97;;;15.40;99.90;;;;;;5032328;28;25071;-75
2021/08/28 01:59:38;;;;;;;21.42;6.97;;;15.40;99.90;;;;;;5033039;28;25053;-73
2021/08/28 02:02:03;;;;;;;20.88;7.15;;;15.40;99.90;;;;;;5032550;28;25105;-74
2021/08/28 02:04:29;;;;;;;21.50;6.15;;;15.40;99.90;;;;;;5032914;28;25070;-77
2021/08/28 02:07:04;;;;;;;17.48;5.93;;;15.40;99.90;;;;;;5034332;28;25520;-76
2021/08/28 02:09:41;;;;;;;28.70;6.43;;;15.40;99.90;;;;;;5029303;28;25078;-74
2021/08/28 02:12:34;;;;;;;23.15;6.95;;;15.40;99.90;;;;;;5028493;28;25061;-73
2021/08/28 02:15:10;;;;;;;24.20;6.65;;;15.40;99.90;;;;;;5015386;28;25081;-73
2021/08/28 02:17:46;;;;;;;20.02;6.38;;;15.40;99.90;;;;;;5035998;28;25063;-74
2021/08/28 02:20:15;;;;;;;27.90;6.93;;;15.50;99.90;;;;;;5036832;28;25069;-74
2021/08/28 02:22:46;;;;;;;26.33;7.43;;;15.50;99.90;;;;;;5035987;28;25057;-73
2021/08/28 02:25:19;;;;;;;23.38;6.40;;;15.40;99.90;;;;;;5036169;28;25076;-72
2021/08/28 02:27:49;;;;;;;23.52;7.22;;;15.40;99.90;;;;;;5018142;28;25085;-75
2021/08/28 02:30:18;;;;;;;21.13;6.05;;;15.40;99.90;;;;;;5035784;28;25124;-74
2021/08/28 02:32:47;;;;;;;23.75;7.05;;;15.40;99.90;;;;;;5033135;28;25067;-74
2021/08/28 02:35:15;;;;;;;17.05;6.63;;;15.40;99.90;;;;;;5036012;28;25065;-75
2021/08/28 02:37:42;;;;;;;30.50;6.75;;;15.40;99.90;;;;;;5035443;28;25078;-75
2021/08/28 02:40:12;;;;;;;25.15;7.00;;;15.30;99.90;;;;;;5035591;28;25068;-73
2021/08/28 02:42:40;;;;;;;21.58;7.13;;;15.30;99.90;;;;;;5035014;28;25078;-74
2021/08/28 02:45:06;;;;;;;22.23;7.22;;;15.30;99.90;;;;;;5036017;28;25109;-73
2021/08/28 02:47:33;;;;;;;25.20;8.43;;;15.30;99.90;;;;;;5034527;28;25057;-74
2021/08/28 02:50:00;;;;;;;24.52;7.25;;;15.30;99.90;;;;;;5036004;28;25077;-74
2021/08/28 02:52:29;;;;;;;27.88;7.75;;;15.30;99.90;;;;;;5036036;28;25054;-74
2021/08/28 02:54:58;;;;;;;23.65;7.68;;;15.30;99.90;;;;;;5035301;28;25074;-73
2021/08/28 02:57:25;;;;;;;20.85;6.55;;;15.30;99.90;;;;;;5036067;28;25084;-73
2021/08/28 02:59:51;;;;;;;35.58;8.40;;;15.30;99.90;;;;;;5034462;28;25097;-72
2021/08/28 03:02:18;;;;;;;25.40;7.90;;;15.30;99.90;;;;;;5021727;28;25066;-74
2021/08/28 03:04:44;;;;;;;25.40;7.85;;;15.30;99.90;;;;;;5013640;28;25133;-76
2021/08/28 03:07:11;;;;;;;21.23;7.50;;;15.30;99.90;;;;;;5014653;28;25091;-75
2021/08/28 03:09:37;;;;;;;22.00;7.05;;;15.30;99.90;;;;;;5014860;28;25128;-76
2021/08/28 03:12:03;;;;;;;16.40;8.07;;;15.30;99.90;;;;;;5022892;28;25102;-73
2021/08/28 03:14:29;;;;;;;23.88;7.93;;;15.30;99.90;;;;;;5035104;28;25096;-74
2021/08/28 03:16:56;;;;;;;20.63;7.72;;;15.30;99.90;;;;;;5032962;28;25053;-74
2021/08/28 03:19:24;;;;;;;25.48;7.45;;;15.30;99.90;;;;;;4987821;28;25054;-75
2021/08/28 03:21:53;;;;;;;23.88;8.30;;;15.30;99.90;;;;;;5011368;28;25056;-76
2021/08/28 03:24:23;;;;;;;22.45;7.22;;;15.40;99.90;;;;;;5012617;28;25064;-76
2021/08/28 03:26:51;;;;;;;26.30;8.13;;;15.40;99.90;;;;;;5013906;28;25191;-75
2021/08/28 03:29:20;;;;;;;25.23;7.57;;;15.40;99.90;;;;;;5013979;28;25096;-76
2021/08/28 03:31:46;;;;;;;28.33;8.15;;;15.50;99.90;;;;;;5014543;28;25141;-76
2021/08/28 03:34:14;;;;;;;21.77;6.35;;;15.50;99.90;;;;;;5014401;28;25158;-76
2021/08/28 03:36:42;;;;;;;16.02;6.20;;;15.50;99.90;;;;;;5013783;28;25054;-75
2021/08/28 03:39:08;;;;;;;21.92;6.57;;;15.50;99.90;;;;;;5014457;28;25150;-75
2021/08/28 03:41:34;;;;;;;16.88;6.18;;;15.50;99.90;;;;;;5014017;28;25073;-74
2021/08/28 03:43:59;;;;;;;23.42;6.70;;;15.50;99.90;;;;;;5014172;28;25156;-74
2021/08/28 03:46:25;;;;;;;18.42;6.05;;;15.50;99.90;;;;;;5013759;28;25131;-75
2021/08/28 03:48:52;;;;;;;17.15;6.78;;;15.50;99.90;;;;;;5013219;28;25058;-75
2021/08/28 03:51:17;;;;;;;23.90;6.93;;;15.50;99.90;;;;;;5012769;28;25058;-75
2021/08/28 03:53:43;;;;;;;17.13;6.80;;;15.50;99.90;;;;;;4988190;28;25073;-74
2021/08/28 03:56:09;;;;;;;23.65;6.97;;;15.50;99.90;;;;;;5012484;28;25094;-72
2021/08/28 03:58:35;;;;;;;22.17;6.18;;;15.50;99.90;;;;;;5012387;28;25098;-74
2021/08/28 04:01:02;;;;;;;18.33;6.80;;;15.50;99.90;;;;;;5013057;28;25086;-76
2021/08/28 04:03:27;;;;;;;38.92;8.32;;;15.50;99.90;;;;;;5014357;28;25072;-76
2021/08/28 04:05:53;;;;;;;19.50;7.03;;;15.40;99.90;;;;;;5013860;28;25089;-76
2021/08/28 04:08:18;;;;;;;30.35;8.00;;;15.40;99.90;;;;;;5013306;28;25075;-75
2021/08/28 04:10:44;;;;;;;17.13;7.38;;;15.40;99.90;;;;;;5011590;28;25108;-75
2021/08/28 04:13:09;;;;;;;24.33;7.05;;;15.30;99.90;;;;;;5013272;28;25069;-75
2021/08/28 04:15:35;;;;;;;22.25;7.07;;;15.30;99.90;;;;;;5014256;28;25157;-76
2021/08/28 04:18:01;;;;;;;18.80;6.60;;;15.40;99.90;;;;;;5012635;28;25094;-74
2021/08/28 04:20:28;;;;;;;22.05;6.50;;;15.30;99.90;;;;;;4995009;28;25121;-76
2021/08/28 04:22:53;;;;;;;19.55;7.05;;;15.30;99.90;;;;;;5014110;28;25053;-75
2021/08/28 04:25:19;;;;;;;18.70;8.13;;;15.40;99.90;;;;;;5030060;28;25130;-75
2021/08/28 04:27:44;;;;;;;16.52;6.38;;;15.40;99.90;;;;;;5033211;28;25078;-74
2021/08/28 04:30:10;;;;;;;20.73;6.60;;;15.40;99.90;;;;;;5023810;28;25065;-75
2021/08/28 04:32:36;;;;;;;19.90;7.25;;;15.40;99.90;;;;;;5018013;28;25056;-74
2021/08/28 04:35:02;;;;;;;16.58;6.35;;;15.40;99.90;;;;;;5013130;28;25141;-74
2021/08/28 04:37:27;;;;;;;17.23;6.75;;;15.30;99.90;;;;;;4993057;28;25143;-76
2021/08/28 04:39:53;;;;;;;20.83;7.38;;;15.30;99.90;;;;;;4994449;28;25118;-73
2021/08/28 04:42:19;;;;;;;23.48;7.85;;;15.30;99.90;;;;;;5009435;28;25071;-75
2021/08/28 04:44:45;;;;;;;19.15;6.55;;;15.30;99.90;;;;;;5012366;28;25059;-75
2021/08/28 04:47:11;;;;;;;16.73;6.53;;;15.40;99.90;;;;;;5013086;28;25050;-75
2021/08/28 04:49:36;;;;;;;19.05;5.72;;;15.40;99.90;;;;;;5012483;28;25059;-75
2021/08/28 04:52:02;;;;;;;16.17;6.03;;;15.50;99.90;;;;;;5012157;28;25076;-76
2021/08/28 04:54:28;;;;;;;14.30;5.70;;;15.40;99.90;;;;;;5012715;28;25116;-74
2021/08/28 04:56:55;;;;;;;14.07;6.38;;;15.40;99.90;;;;;;5012203;28;25078;-75
2021/08/28 04:59:20;;;;;;;13.32;6.20;;;15.40;99.90;;;;;;5011705;28;25084;-75
2021/08/28 05:01:46;;;;;;;22.50;6.88;;;15.50;99.90;;;;;;4994609;28;25087;-76
2021/08/28 05:04:11;;;;;;;21.95;6.85;;;15.40;99.90;;;;;;5012019;28;25087;-74
2021/08/28 05:06:37;;;;;;;15.98;6.55;;;15.50;99.90;;;;;;4994971;28;25049;-75
2021/08/28 05:09:03;;;;;;;14.82;6.60;;;15.50;99.90;;;;;;5010799;28;25132;-74
2021/08/28 05:11:28;;;;;;;24.00;7.70;;;15.50;99.90;;;;;;5010318;28;25139;-75
2021/08/28 05:13:54;;;;;;;18.60;6.55;;;15.50;99.90;;;;;;5011176;28;25064;-75
2021/08/28 05:16:19;;;;;;;24.17;7.55;;;15.50;99.90;;;;;;5011114;28;25082;-75
2021/08/28 05:18:45;;;;;;;16.55;6.28;;;15.50;99.90;;;;;;5010831;28;25091;-73
2021/08/28 05:21:12;;;;;;;15.05;6.70;;;15.60;99.90;;;;;;5008971;28;25082;-74
2021/08/28 05:23:37;;;;;;;16.02;6.65;;;15.60;99.90;;;;;;4988715;28;25086;-75
2021/08/28 05:26:03;;;;;;;19.45;7.57;;;15.60;99.90;;;;;;5006571;28;25112;-74
2021/08/28 05:28:28;;;;;;;15.40;7.40;;;15.60;99.90;;;;;;5006754;28;25087;-74
2021/08/28 05:30:54;;;;;;;16.58;7.05;;;15.60;99.90;;;;;;5007593;28;25078;-71
2021/08/28 05:33:20;;;;;;;16.90;6.38;;;15.70;99.90;;;;;;5006939;28;25171;-74
2021/08/28 05:35:45;;;;;;;13.30;6.55;;;15.70;99.90;;;;;;5007475;28;25142;-74
2021/08/28 05:38:11;;;;;;;17.85;7.15;;;15.70;99.90;;;;;;5005277;28;25112;-75
2021/08/28 05:40:37;;;;;;;14.65;7.47;;;15.70;99.90;;;;;;5006940;28;25124;-73
2021/08/28 05:43:02;;;;;;;13.20;6.47;;;15.80;99.90;;;;;;5003680;28;25108;-75
2021/08/28 05:45:28;;;;;;;13.73;6.80;;;15.80;99.90;;;;;;5006278;28;25053;-78
2021/08/28 05:47:54;;;;;;;14.02;6.88;;;15.80;99.90;;;;;;5006299;28;25053;-74
2021/08/28 05:50:19;;;;;;;18.88;7.40;;;15.80;99.90;;;;;;5008302;28;25064;-72
2021/08/28 05:52:46;;;;;;;16.25;6.35;;;15.90;99.90;;;;;;5007380;28;25049;-74
2021/08/28 05:55:14;;;;;;;15.30;6.78;;;15.90;99.90;;;;;;5007982;28;25097;-73
2021/08/28 05:57:41;;;;;;;14.55;6.28;;;15.90;99.90;;;;;;5008668;28;25112;-76
2021/08/28 06:00:07;;;;;;;15.65;6.20;;;15.90;99.90;;;;;;5007767;28;25111;-74
2021/08/28 06:02:38;;;;;;;12.85;6.18;;;15.90;99.90;;;;;;5006505;28;25055;-75
2021/08/28 06:05:09;;;;;;;14.77;6.35;;;15.90;99.90;;;;;;5006296;28;25104;-75
2021/08/28 06:07:35;;;;;;;14.50;6.25;;;16.00;99.90;;;;;;5006582;28;25116;-73
2021/08/28 06:10:01;;;;;;;13.55;5.63;;;16.00;99.90;;;;;;5006928;28;25081;-75
2021/08/28 06:12:27;;;;;;;17.48;6.95;;;16.00;99.90;;;;;;5006901;28;25181;-73
2021/08/28 06:14:52;;;;;;;18.45;6.72;;;16.00;99.90;;;;;;5006860;28;25077;-76
2021/08/28 06:17:18;;;;;;;21.88;6.57;;;16.10;99.90;;;;;;5006851;28;25080;-74
2021/08/28 06:19:44;;;;;;;12.95;7.07;;;16.10;99.90;;;;;;5006294;28;25063;-74
2021/08/28 06:22:10;;;;;;;22.35;7.47;;;16.10;99.90;;;;;;5006259;28;25113;-71
2021/08/28 06:24:35;;;;;;;19.67;6.28;;;16.20;99.90;;;;;;5005850;28;25154;-74
2021/08/28 06:27:03;;;;;;;14.20;6.93;;;16.20;99.90;;;;;;5005933;28;25112;-75
2021/08/28 06:29:29;;;;;;;24.00;6.55;;;16.30;99.90;;;;;;5005679;28;25066;-74
2021/08/28 06:31:55;;;;;;;15.18;5.45;;;16.30;99.90;;;;;;5005618;28;25142;-75
2021/08/28 06:34:20;;;;;;;16.63;6.25;;;16.30;99.90;;;;;;5006673;28;25084;-76
2021/08/28 06:36:46;;;;;;;22.27;6.95;;;16.30;99.90;;;;;;5005781;28;25052;-75
2021/08/28 06:39:11;;;;;;;15.13;6.78;;;16.30;99.90;;;;;;5006507;28;25153;-73
2021/08/28 06:41:37;;;;;;;15.93;6.50;;;16.30;99.90;;;;;;5004652;28;25095;-73
2021/08/28 06:44:02;;;;;;;19.42;6.28;;;16.30;99.90;;;;;;5005693;28;25352;-74
2021/08/28 06:46:30;;;;;;;16.52;6.72;;;16.30;99.90;;;;;;5006282;28;25061;-74
2021/08/28 06:48:55;;;;;;;29.83;8.30;;;16.40;99.90;;;;;;5005605;28;25172;-74
2021/08/28 06:51:21;;;;;;;20.98;6.53;;;16.40;99.90;;;;;;5006789;28;25108;-74
2021/08/28 06:53:49;;;;;;;16.63;6.50;;;16.50;99.90;;;;;;5008406;28;25069;-74
2021/08/28 06:56:14;;;;;;;18.38;6.53;;;16.60;99.90;;;;;;5009517;28;25052;-73
2021/08/28 06:58:40;;;;;;;18.95;6.57;;;16.60;99.90;;;;;;5009487;28;25123;-74
2021/08/28 07:01:05;;;;;;;19.20;6.13;;;16.70;99.90;;;;;;5009744;28;25135;-75
2021/08/28 07:03:31;;;;;;;15.07;6.38;;;16.60;99.90;;;;;;5009722;28;25093;-73
2021/08/28 07:05:56;;;;;;;16.25;5.75;;;16.60;99.90;;;;;;5008880;28;25088;-74
2021/08/28 07:08:22;;;;;;;18.85;5.65;;;16.70;99.90;;;;;;5008721;28;25142;-74
2021/08/28 07:10:48;;;;;;;16.52;5.93;;;16.70;99.90;;;;;;5008522;28;25067;-76
2021/08/28 07:13:13;;;;;;;15.38;6.47;;;16.80;99.90;;;;;;5010066;28;25114;-74
2021/08/28 07:15:39;;;;;;;22.17;6.50;;;16.80;99.90;;;;;;5009421;28;25065;-75
2021/08/28 07:18:07;;;;;;;10.07;5.47;;;16.80;99.90;;;;;;5009220;28;25163;-74
2021/08/28 07:20:34;;;;;;;13.73;6.25;;;16.90;99.90;;;;;;5009155;28;25129;-75
2021/08/28 07:23:00;;;;;;;17.80;6.03;;;16.90;99.90;;;;;;5008707;28;25077;-73
2021/08/28 07:25:26;;;;;;;23.25;7.25;;;16.80;99.90;;;;;;5008083;28;25132;-74
2021/08/28 07:27:51;;;;;;;20.42;5.55;;;16.90;99.90;;;;;;5009050;28;25102;-73
2021/08/28 07:30:17;;;;;;;26.85;7.30;;;16.90;99.90;;;;;;5012396;28;25084;-75
2021/08/28 07:32:42;;;;;;;21.45;7.18;;;16.90;99.90;;;;;;5013342;28;25106;-74
2021/08/28 07:35:08;;;;;;;18.63;6.50;;;16.90;99.90;;;;;;5012767;28;25055;-75
2021/08/28 07:37:34;;;;;;;19.33;5.97;;;16.90;99.90;;;;;;5014232;28;25326;-75
2021/08/28 07:39:59;;;;;;;13.57;5.22;;;16.90;99.90;;;;;;5012400;28;25076;-75
2021/08/28 07:42:25;;;;;;;15.25;5.65;;;16.90;99.90;;;;;;5009413;28;25072;-76
2021/08/28 07:44:50;;;;;;;13.07;5.72;;;17.00;99.90;;;;;;5009723;28;25069;-74
2021/08/28 07:47:16;;;;;;;16.55;5.60;;;17.00;99.90;;;;;;5006125;28;25111;-73
2021/08/28 07:49:42;;;;;;;13.63;6.70;;;17.10;99.90;;;;;;5008755;28;25058;-75
2021/08/28 07:52:07;;;;;;;16.58;6.70;;;17.10;99.90;;;;;;5007683;28;25090;-75
2021/08/28 07:54:33;;;;;;;16.58;6.47;;;17.10;99.90;;;;;;5007960;28;25130;-73
2021/08/28 07:56:59;;;;;;;11.80;5.20;;;17.20;99.90;;;;;;5008933;28;25115;-74
2021/08/28 07:59:25;;;;;;;12.73;5.80;;;17.30;99.90;;;;;;5008522;28;25140;-75
2021/08/28 08:01:53;;;;;;;18.92;6.50;;;17.30;99.90;;;;;;5008058;28;25161;-73
2021/08/28 08:04:19;;;;;;;14.40;6.55;;;17.40;99.90;;;;;;5007823;28;25058;-74
2021/08/28 08:06:44;;;;;;;12.52;6.28;;;17.40;99.90;;;;;;5007729;28;25159;-73
2021/08/28 08:09:10;;;;;;;15.75;5.63;;;17.40;99.90;;;;;;4990995;28;25096;-73
2021/08/28 08:11:36;;;;;;;15.75;5.78;;;17.50;99.90;;;;;;5007599;28;25053;-73
2021/08/28 08:14:02;;;;;;;14.25;5.57;;;17.60;99.90;;;;;;5008144;28;25048;-74
2021/08/28 08:16:28;;;;;;;14.50;5.63;;;17.70;99.90;;;;;;5008693;28;25119;-72
2021/08/28 08:18:53;;;;;;;12.52;5.95;;;17.70;99.90;;;;;;5007228;28;25076;-74
2021/08/28 08:21:20;;;;;;;18.45;5.38;;;17.60;99.90;;;;;;5007937;28;25160;-73
2021/08/28 08:23:46;;;;;;;14.45;5.05;;;17.60;99.90;;;;;;5008439;28;25069;-74
2021/08/28 08:26:12;;;;;;;10.63;5.03;;;17.90;99.90;;;;;;4991035;28;25130;-73
2021/08/28 08:28:38;;;;;;;16.13;4.68;;;18.30;99.90;;;;;;5008264;28;25061;-74
2021/08/28 08:31:04;;;;;;;13.43;5.32;;;18.40;99.90;;;;;;5007229;28;25083;-72
2021/08/28 08:33:29;;;;;;;13.13;5.18;;;18.40;99.90;;;;;;5009157;28;25159;-73
2021/08/28 08:35:55;;;;;;;13.43;4.63;;;18.50;99.90;;;;;;5007999;28;25065;-74
2021/08/28 08:38:21;;;;;;;11.77;4.95;;;18.50;99.90;;;;;;5007855;28;25080;-71
2021/08/28 08:40:48;;;;;;;12.10;4.65;;;19.00;99.90;;;;;;5007597;28;25122;-73
2021/08/28 08:43:14;;;;;;;7.40;3.72;;;19.10;99.90;;;;;;5007326;28;25103;-72
2021/08/28 08:45:42;;;;;;;12.43;4.63;;;19.30;99.90;;;;;;5008943;28;25106;-72
2021/08/28 08:48:08;;;;;;;9.38;4.57;;;19.30;99.90;;;;;;5014359;28;25069;-73
2021/08/28 08:50:34;;;;;;;13.82;4.60;;;19.50;99.90;;;;;;5026617;28;25056;-72
2021/08/28 08:53:03;;;;;;;9.57;4.63;;;19.00;99.90;;;;;;5030668;28;25082;-74
2021/08/28 08:55:29;;;;;;;9.63;4.30;;;18.80;99.90;;;;;;5024058;28;25061;-74
2021/08/28 08:57:56;;;;;;;17.30;5.13;;;18.90;99.90;;;;;;5011018;28;25557;-74
2021/08/28 09:00:22;;;;;;;12.68;5.50;;;19.00;99.90;;;;;;5010244;28;25060;-73
2021/08/28 09:02:47;;;;;;;9.68;4.88;;;19.00;99.90;;;;;;5010184;28;25094;-74
2021/08/28 09:05:13;;;;;;;8.13;3.95;;;19.10;99.90;;;;;;5010896;28;25078;-74
2021/08/28 09:07:39;;;;;;;13.85;4.80;;;19.20;99.90;;;;;;5008229;28;25089;-74
2021/08/28 09:10:05;;;;;;;14.85;4.25;;;19.70;99.90;;;;;;5008002;28;25051;-71
2021/08/28 09:12:36;;;;;;;11.30;4.72;;;19.70;99.90;;;;;;5007548;28;25106;-73
2021/08/28 09:15:02;;;;;;;7.15;4.43;;;19.30;99.90;;;;;;5009924;28;25077;-73
2021/08/28 09:17:27;;;;;;;10.23;4.40;;;19.30;99.90;;;;;;5006702;28;25066;-71
2021/08/28 09:19:53;;;;;;;9.10;4.07;;;19.00;99.90;;;;;;5007091;28;25067;-73
2021/08/28 09:22:30;;;;;;;8.40;4.10;;;18.90;99.90;;;;;;5008127;28;25082;-76
2021/08/28 09:25:04;;;;;;;8.82;4.55;;;18.70;99.90;;;;;;5005545;28;25108;-73
2021/08/28 09:27:35;;;;;;;8.23;4.00;;;18.70;99.90;;;;;;5004319;28;25173;-75
2021/08/28 09:30:02;;;;;;;9.73;4.55;;;18.60;99.90;;;;;;5005659;28;25070;-73
2021/08/28 09:32:28;;;;;;;12.27;4.82;;;18.80;99.90;;;;;;5006176;28;25070;-75
2021/08/28 09:35:05;;;;;;;9.75;4.65;;;18.90;99.90;;;;;;5006304;28;25059;-74
2021/08/28 09:37:31;;;;;;;11.02;4.50;;;18.90;99.90;;;;;;5005155;28;25084;-74
2021/08/28 09:40:01;;;;;;;12.45;5.07;;;18.70;99.90;;;;;;5005456;28;25085;-75
2021/08/28 09:42:27;;;;;;;11.20;4.60;;;18.90;99.90;;;;;;5004720;28;25128;-74
2021/08/28 09:44:53;;;;;;;11.27;5.53;;;19.10;99.90;;;;;;5005310;28;25169;-73
2021/08/28 09:47:22;;;;;;;12.30;4.80;;;19.20;99.90;;;;;;5005756;28;25110;-73
2021/08/28 09:49:51;;;;;;;16.88;6.20;;;19.40;99.90;;;;;;5006800;28;25062;-72
2021/08/28 09:52:20;;;;;;;15.38;4.97;;;19.50;99.90;;;;;;5005896;28;25062;-73
2021/08/28 09:54:46;;;;;;;10.15;4.78;;;19.40;99.90;;;;;;5005078;28;25138;-73
2021/08/28 09:57:12;;;;;;;9.68;5.30;;;19.30;99.90;;;;;;5005457;28;25070;-73
2021/08/28 09:59:38;;;;;;;5.82;4.35;;;19.10;99.90;;;;;;5005603;28;25103;-73
2021/08/28 10:02:10;;;;;;;13.80;5.65;;;19.10;99.90;;;;;;5005483;28;25081;-74
2021/08/28 10:04:52;;;;;;;11.02;5.78;;;18.90;99.90;;;;;;5006180;28;25092;-73
2021/08/28 10:07:20;;;;;;;10.27;5.43;;;19.00;99.90;;;;;;5005582;28;25162;-73
2021/08/28 10:09:46;;;;;;;11.00;5.30;;;19.00;99.90;;;;;;4988052;28;25088;-74
2021/08/28 10:12:15;;;;;;;9.82;6.28;;;18.80;99.90;;;;;;5006238;28;25151;-71
2021/08/28 10:14:41;;;;;;;9.95;5.35;;;19.10;99.90;;;;;;5007205;28;25060;-74
2021/08/28 10:17:08;;;;;;;12.32;5.13;;;19.30;99.90;;;;;;5006817;28;25158;-75
2021/08/28 10:19:35;;;;;;;10.77;4.90;;;19.60;99.90;;;;;;5006393;28;25071;-74
2021/08/28 10:22:01;;;;;;;11.20;4.88;;;19.80;99.90;;;;;;5006269;28;25069;-73
2021/08/28 10:24:27;;;;;;;9.07;5.32;;;19.90;99.90;;;;;;5006197;28;25061;-75
2021/08/28 10:26:53;;;;;;;11.73;4.75;;;19.70;99.90;;;;;;5006053;28;25087;-76
2021/08/28 10:29:19;;;;;;;11.38;4.72;;;19.60;99.90;;;;;;5009397;28;25134;-73
2021/08/28 10:31:47;;;;;;;10.43;4.30;;;19.40;99.90;;;;;;5008342;28;25075;-73
2021/08/28 10:34:14;;;;;;;11.40;5.05;;;19.70;99.90;;;;;;5008488;28;25066;-73
2021/08/28 10:36:40;;;;;;;11.13;4.75;;;19.90;99.90;;;;;;5010561;28;25060;-70
2021/08/28 10:39:06;;;;;;;11.52;5.82;;;19.90;99.90;;;;;;5008826;28;25053;-75
2021/08/28 10:41:33;;;;;;;14.27;5.75;;;19.70;99.90;;;;;;5010274;28;25059;-74
2021/08/28 10:44:01;;;;;;;11.05;5.40;;;19.60;99.90;;;;;;5009270;28;25116;-73
2021/08/28 10:46:30;;;;;;;9.73;4.35;;;19.60;99.90;;;;;;5011346;28;25081;-73
2021/08/28 10:49:00;;;;;;;14.27;4.72;;;19.80;99.90;;;;;;4997187;28;25104;-74
2021/08/28 10:51:31;;;;;;;12.57;5.28;;;19.80;99.90;;;;;;5009148;28;25058;-75
2021/08/28 10:54:04;;;;;;;11.00;5.40;;;19.80;99.90;;;;;;5012047;28;25071;-77
2021/08/28 10:56:43;;;;;;;14.65;5.43;;;19.50;99.90;;;;;;5009329;28;25058;-74
2021/08/28 10:59:25;;;;;;;12.75;5.22;;;19.30;99.90;;;;;;5012076;28;25140;-75
2021/08/28 11:01:59;;;;;;;17.45;6.53;;;19.40;99.90;;;;;;5007741;28;25055;-76
2021/08/28 11:04:37;;;;;;;13.65;5.70;;;19.30;99.90;;;;;;5010447;28;25060;-75
2021/08/28 11:07:27;;;;;;;13.23;5.53;;;18.90;99.90;;;;;;5006981;28;25108;-74
2021/08/28 11:10:10;;;;;;;13.85;5.40;;;18.70;99.90;;;;;;5009833;28;25078;-73
2021/08/28 11:12:58;;;;;;;9.25;5.13;;;18.80;99.90;;;;;;5009892;28;25091;-75
2021/08/28 11:15:29;;;;;;;10.05;5.07;;;19.10;99.90;;;;;;5008842;28;25068;-76
2021/08/28 11:17:57;;;;;;;11.55;5.47;;;19.10;99.90;;;;;;5010256;28;25059;-73
2021/08/28 11:20:25;;;;;;;13.48;5.65;;;19.30;99.90;;;;;;5009687;28;25130;-75
2021/08/28 11:22:51;;;;;;;9.25;4.72;;;19.60;99.90;;;;;;5011805;28;25103;-74
2021/08/28 11:25:20;;;;;;;7.55;4.45;;;19.80;99.90;;;;;;5013110;28;25090;-75
2021/08/28 11:27:47;;;;;;;9.65;4.38;;;20.10;99.90;;;;;;5013095;28;25057;-73
2021/08/28 11:30:15;;;;;;;13.27;6.10;;;19.90;99.90;;;;;;5014200;28;25063;-73
2021/08/28 11:32:41;;;;;;;7.35;4.65;;;19.60;99.90;;;;;;5010148;28;25112;-76
2021/08/28 11:35:07;;;;;;;11.95;4.88;;;19.50;99.90;;;;;;5013237;28;25061;-74
2021/08/28 11:37:34;;;;;;;8.73;4.40;;;19.20;99.90;;;;;;5013733;28;25099;-75
2021/08/28 11:40:19;;;;;;;14.07;5.22;;;19.20;99.90;;;;;;5011251;28;25092;-74
2021/08/28 11:42:46;;;;;;;11.77;4.13;;;19.80;99.90;;;;;;5009112;28;25100;-73
2021/08/28 11:45:11;;;;;;;8.25;3.92;;;20.40;99.90;;;;;;5005471;28;25066;-72
2021/08/28 11:47:39;;;;;;;8.35;4.25;;;20.60;99.90;;;;;;5011200;28;25119;-75
2021/08/28 11:50:06;;;;;;;17.42;3.97;;;20.50;99.90;;;;;;5010809;28;25138;-74
2021/08/28 11:52:36;;;;;;;8.60;4.60;;;20.60;99.90;;;;;;5010132;28;25058;-74
2021/08/28 11:55:06;;;;;;;12.85;4.80;;;20.80;99.90;;;;;;5001950;28;25076;-74
2021/08/28 11:57:35;;;;;;;7.18;4.00;;;20.50;99.90;;;;;;4992568;28;25098;-74
2021/08/28 12:00:06;;;;;;;7.78;3.67;;;20.40;99.90;;;;;;5008074;28;25121;-74
2021/08/28 12:02:32;;;;;;;5.80;3.60;;;20.60;99.90;;;;;;5010367;28;25091;-75
2021/08/28 12:05:11;;;;;;;9.82;4.32;;;21.00;99.90;;;;;;5011076;28;25110;-76
2021/08/28 12:07:38;;;;;;;9.60;4.47;;;21.20;99.90;;;;;;5006173;28;25069;-76
2021/08/28 12:10:05;;;;;;;8.95;4.65;;;21.10;99.90;;;;;;5010486;28;25078;-75
2021/08/28 12:12:30;;;;;;;10.38;4.30;;;21.00;99.90;;;;;;4992077;28;25138;-73
2021/08/28 12:15:05;;;;;;;7.00;3.90;;;20.70;99.90;;;;;;4992145;28;25087;-73
2021/08/28 12:17:30;;;;;;;10.35;3.50;;;20.50;99.90;;;;;;5008275;28;25069;-74
2021/08/28 12:20:01;;;;;;;7.50;3.58;;;20.40;99.90;;;;;;4992853;28;25059;-75
2021/08/28 12:22:27;;;;;;;6.88;3.22;;;20.20;99.90;;;;;;5007143;28;25047;-74
2021/08/28 12:24:53;;;;;;;8.63;4.40;;;20.40;99.90;;;;;;5005608;28;25105;-74
2021/08/28 12:27:18;;;;;;;7.07;4.13;;;20.70;99.90;;;;;;5008716;28;25072;-76
2021/08/28 12:29:47;;;;;;;6.78;4.30;;;20.80;99.90;;;;;;5006928;28;25054;-75
2021/08/28 12:32:26;;;;;;;7.60;3.00;;;20.90;99.90;;;;;;5008981;28;25077;-77
2021/08/28 12:34:57;;;;;;;6.63;3.97;;;20.80;99.90;;;;;;5002030;28;25079;-74
2021/08/28 12:37:25;;;;;;;7.93;3.38;;;20.90;99.90;;;;;;5010454;28;25107;-73
2021/08/28 12:39:53;;;;;;;8.65;3.83;;;20.90;99.90;;;;;;5009170;28;25097;-75